• Join FlightAware (Why Join?)
  • Login
  • US Flag 
11:12PM EST


 

Airport Tracker/Info


-or-


 

Live Flight TrackerFlight Track Log ✈ SKW5631 ✈ 26-Apr-2013 ✈ KSFO - KBFL

Flight Track Log - Related Links

Times and Time Zones

All times are in EDT time to prevent confusion due to time zone crossing. See the SKW5631 flight status page for this flight to view local times or setup timezone preferences in your user account.

Time Position Orientation Groundspeed Altitude Reporting Facility
EDT Latitude Longitude Course Direction KTS MPH feet Rate Location/Type
07:30PM 37.6667 -122.3000 50° Northeast 184 212 3,200  Level Northern Cal TRACON
07:31PM 37.6914 -122.2736 40° Northeast 184 212 4,200 1,560 Climbing Oakland Center
07:32PM 37.7239 -122.2231 51° Northeast 187 215 5,800 1,500 Climbing Oakland Center
07:33PM 37.7353 -122.1589 77° East 187 215 7,300 1,380 Climbing Oakland Center
07:34PM 37.7478 -122.0961 76° East 187 215 8,700 1,320 Climbing Oakland Center
07:35PM 37.7586 -122.0311 78° East 188 216 10,100 1,200 Climbing Oakland Center
07:36PM 37.7714 -121.9656 76° East 192 221 11,200 1,020 Climbing Oakland Center
07:37PM 37.7828 -121.8961 78° East 199 229 12,300 1,020 Climbing Oakland Center
07:38PM 37.7986 -121.8128 76° East 203 234 13,400 1,020 Climbing Oakland Center
07:39PM 37.8033 -121.7442 85° East 209 241 14,500 960 Climbing Oakland Center
07:40PM 37.7739 -121.6817 121° Southeast 209 241 15,400 780 Climbing Oakland Center
07:41PM 37.7450 -121.6156 119° Southeast 212 244 16,200 840 Climbing Oakland Center
07:42PM 37.7136 -121.5497 121° Southeast 219 252 17,200 780 Climbing Oakland Center
07:43PM 37.6814 -121.4819 121° Southeast 221 254 17,900 780 Climbing Oakland Center
07:44PM 37.6336 -121.4294 139° Southeast 226 260 18,800 720 Climbing Oakland Center
07:45PM 37.5881 -121.3783 138° Southeast 224 258 19,400 660 Climbing Oakland Center
07:46PM 37.5303 -121.3133 138° Southeast 231 266 20,200 660 Climbing Oakland Center
07:47PM 37.4806 -121.2581 139° Southeast 237 273 20,800 600 Climbing Oakland Center
07:48PM 37.4308 -121.2028 139° Southeast 238 274 21,500 600 Climbing Oakland Center
07:49PM 37.3817 -121.1464 138° Southeast 236 272 22,100 540 Climbing Oakland Center
07:50PM 37.3317 -121.0900 138° Southeast 240 276 22,700 420 Climbing Oakland Center
07:51PM 37.2803 -121.0347 139° Southeast 243 280 23,000 120 Climbing Oakland Center
07:52PM 37.2253 -120.9719 138° Southeast 265 305 23,000  Level Oakland Center
07:53PM 37.1689 -120.9108 139° Southeast 269 310 23,000  Level Oakland Center
07:54PM 37.1150 -120.8486 137° Southeast 265 305 23,000  Level Oakland Center
07:55PM 37.0458 -120.7769 140° Southeast 271 312 23,000  Level Oakland Center
07:56PM 36.9906 -120.7164 139° Southeast 266 306 23,000  Level Oakland Center
07:57PM 36.9339 -120.6544 139° Southeast 274 315 23,000  Level Oakland Center
07:58PM 36.8808 -120.5903 136° Southeast 285 328 23,000  Level Oakland Center
07:59PM 36.8181 -120.5258 141° Southeast 270 311 23,000  Level Oakland Center
08:00PM 36.7619 -120.4639 139° Southeast 271 312 23,000  Level Oakland Center
08:01PM 36.7064 -120.4022 138° Southeast 268 308 23,000  Level Oakland Center
08:02PM 36.6508 -120.3411 139° Southeast 271 312 23,000  Level Oakland Center
08:03PM 36.5925 -120.2783 139° Southeast 274 315 23,000  Level Oakland Center
08:04PM 36.5375 -120.2169 138° Southeast 269 310 23,000 -300 Level Oakland Center
08:05PM 36.4792 -120.1542 139° Southeast 277 319 22,400 -840 Descending Oakland Center
08:06PM 36.4153 -120.0839 138° Southeast 303 349 21,400 -1,080 Descending Oakland Center
08:08PM 36.2717 -119.9314 139° Southeast 304 350 19,200 -1,140 Descending Oakland Center
08:09PM 36.2086 -119.8625 139° Southeast 302 348 18,000 -1,080 Descending Oakland Center
08:10PM 36.1453 -119.7958 140° Southeast 299 344 17,100 -960 Descending Oakland Center
08:12PM 36.0839 -119.7303 139° Southeast 292 336 16,100 -1,080 Descending Oakland Center
08:13PM 36.0239 -119.6664 139° Southeast 286 329 15,000 -1,320 Descending Oakland Center
08:14PM 35.9642 -119.6061 141° Southeast 278 320 13,400 -1,440 Descending Oakland Center
08:15PM 35.9031 -119.5422 140° Southeast 282 325 12,100 -1,380 Descending Oakland Center
08:16PM 35.8439 -119.4786 139° Southeast 283 326 10,700 -1,380 Descending Oakland Center
08:17PM 35.7878 -119.4119 136° Southeast 280 322 9,300 -1,320 Descending Oakland Center
08:18PM 35.7383 -119.3419 131° Southeast 274 315 8,000 -1,440 Descending Oakland Center
08:19PM 35.6806 -119.2586 130° Southeast 271 312 6,400 -1,440 Descending Oakland Center
08:20PM 35.6428 -119.1836 122° Southeast 266 306 5,100 -780 Descending Oakland Center
08:21PM 35.6047 -119.1136 124° Southeast 257 296 4,900 -180 Descending Oakland Center
08:21PM 35.5875 -119.0894 131° Southeast 252 290 4,900  Level Los Angeles Center
08:22PM 35.5428 -119.0303 133° Southeast 242 278 4,900  Level Los Angeles Center
08:23PM 35.4983 -118.9742 134° Southeast 235 270 4,900 -360 Level Los Angeles Center
08:24PM 35.4397 -118.9361 152° Southeast 227 261 4,200 -360 Descending Los Angeles Center
08:25PM 35.3858 -118.9031 153° Southeast 220 253 4,200  Level Los Angeles Center
08:27PM 35.4205 -119.0145 270° West  Level Estimated